FLG weather

Flagstaff Pulliam Airport
Flagstaff, Arizona, United States

Public forecast

Using degrees Fahrenheit for public forecast. Weather courtesy of forecast.io.

METAR (pilot weather report)

Retrieved 2019/08/23 11:57 UTC (15 minutes ago):

KFLG 231157Z AUTO 23008KT 10SM CLR 12/06 A3023 RMK AO2 SLP130 T01220061 10144 20111 51011

TAF (pilot weather forecast)

Retrieved 2019/08/23 12:22 UTC (0 seconds ago):

TAF KFLG 231120Z 2312/2412 23007KT P6SM SKC FM231700 23012G22KT P6SM FEW250 TEMPO 2317/2321 6SM FU FM240200 VRB03KT P6SM SKC